Líbí se Vám tento web? Budeme velmi rádi, pokud přidáte hodnocení +1

Seznam meteostanic a jejich METAR

Vyhledat místa podle abecedy:
A B C D E F G H I J K L M N O P Q R S T U V W X Y Z

Filtrovat:

ID stanice:
a/nebo
Název místa (fulltext):
 
Místo (ID)Naposledy načteno 
Faro (LPFR) 17.01.2018 21:00 UTC Zobrazit METAR
LPFR 172100Z 02016KT CAVOK 16/07 Q1021
Florence (LIRQ) 17.01.2018 20:50 UTC Zobrazit METAR
LIRQ 172050Z VRB01KT CAVOK 03/M05 Q1014
Foggia, Gino Lisa (LIBF) 17.01.2018 14:50 UTC Zobrazit METAR
LIBF 171450Z 32032G45KT 5000 RA BKN020 10/06 Q1001
Fort de France (TFFF) 17.01.2018 21:00 UTC Zobrazit METAR
TFFF 172100Z AUTO 08005KT 9999 FEW020/// SCT068/// BKN094/// 26/24 Q1014 TEMPO 4000 SHRA SCT018TCU
Frankfurt/ Main (EDDF) 17.01.2018 20:50 UTC Zobrazit METAR
EDDF 172050Z 18007KT CAVOK 03/M02 Q1010 NOSIG
Freetown (GFLL) 17.01.2018 07:00 UTC Zobrazit METAR
GFLL 170700Z 30002KT 9999 SCT012 23/22 Q1011
Funafuti (NGFU) 17.01.2018 21:00 UTC Zobrazit METAR
NGFU 172100Z 09015KT 9999 FEW020 31/25 Q1010
Reklama

Počasí na Váš email

Emaily jsou bez reklamy a bez spamu



Odhlásit newsletter

Reklama


Lunární kalendář

  • 24.01.
  • 31.01.
  • 07.02.
  • 15.02.



Jsme na Google Plus

Reklama
Povinné ručení



Může Vás také zajímat:


Reklama